createdAt,value
2018-03-08T00:01:36.284Z,0
2018-03-08T00:06:36.359Z,0
2018-03-08T00:11:36.195Z,0
2018-03-08T00:16:36.021Z,0
2018-03-08T00:21:35.902Z,0
2018-03-08T00:26:36.738Z,0
2018-03-08T00:31:36.594Z,0
2018-03-08T00:36:36.496Z,0
2018-03-08T00:41:36.315Z,0
2018-03-08T00:46:36.113Z,0
2018-03-08T00:51:35.954Z,0
2018-03-08T00:56:36.823Z,0
2018-03-08T01:01:36.162Z,0
2018-03-08T01:06:36.531Z,0
2018-03-08T01:11:36.602Z,0
2018-03-08T01:16:36.511Z,0
2018-03-08T01:21:36.383Z,0
2018-03-08T01:26:36.236Z,0
2018-03-08T01:31:36.119Z,0
2018-03-08T01:36:35.911Z,0
2018-03-08T01:41:36.819Z,0
2018-03-08T01:46:36.667Z,0
2018-03-08T01:51:36.520Z,0
2018-03-08T01:56:36.331Z,0
2018-03-08T02:01:36.141Z,0
2018-03-08T02:06:36.875Z,0
2018-03-08T02:11:36.821Z,0
2018-03-08T02:16:36.666Z,0
2018-03-08T02:21:36.555Z,0
2018-03-08T02:26:36.409Z,0
2018-03-08T02:31:36.303Z,0
2018-03-08T02:36:36.325Z,0
2018-03-08T02:41:36.228Z,0
2018-03-08T02:46:36.088Z,0
2018-03-08T02:51:36.943Z,0
2018-03-08T02:56:36.741Z,0
2018-03-08T03:01:36.711Z,0
2018-03-08T03:06:36.259Z,0
2018-03-08T03:11:36.112Z,0
2018-03-08T03:16:36.972Z,0
2018-03-08T03:21:36.797Z,0
2018-03-08T03:26:36.675Z,0
2018-03-08T03:31:36.538Z,0
2018-03-08T03:36:36.354Z,0
2018-03-08T03:41:36.232Z,0
2018-03-08T03:46:36.069Z,0
2018-03-08T03:51:36.947Z,0
2018-03-08T03:56:36.830Z,0
2018-03-08T04:01:36.783Z,0
2018-03-08T04:06:36.958Z,0
2018-03-08T04:11:36.894Z,0
2018-03-08T04:16:36.738Z,0
2018-03-08T04:21:36.622Z,0
2018-03-08T04:26:36.489Z,0
2018-03-08T04:31:36.366Z,0
2018-03-08T04:36:36.231Z,0
2018-03-08T04:41:36.140Z,0
2018-03-08T04:46:36.962Z,0
2018-03-08T04:51:36.914Z,0
2018-03-08T04:56:36.728Z,0
2018-03-08T05:01:36.745Z,0
2018-03-08T05:06:36.678Z,0
2018-03-08T05:11:36.583Z,0
2018-03-08T05:16:36.494Z,0
2018-03-08T05:21:36.368Z,0
2018-03-08T05:26:36.246Z,0
2018-03-08T05:31:36.801Z,0
2018-03-08T05:36:36.744Z,0
2018-03-08T05:41:36.597Z,0
2018-03-08T05:46:36.458Z,0
2018-03-08T05:51:36.372Z,0
2018-03-08T05:56:36.159Z,0
2018-03-08T06:01:37.106Z,0
2018-03-08T06:06:36.963Z,5
2018-03-08T06:11:36.884Z,5
2018-03-08T06:16:36.720Z,5
2018-03-08T06:21:36.572Z,5
2018-03-08T06:26:36.496Z,7
2018-03-08T06:31:36.410Z,7
2018-03-08T06:36:36.272Z,5
2018-03-08T06:41:37.131Z,5
2018-03-08T06:46:37.053Z,7.7
2018-03-08T06:51:36.952Z,7.7
2018-03-08T06:56:36.807Z,13.3
2018-03-08T07:01:36.813Z,13.3
2018-03-08T07:06:36.585Z,14.7
2018-03-08T07:11:36.515Z,14.7
2018-03-08T07:16:36.342Z,13.3
2018-03-08T07:21:36.300Z,13.3
2018-03-08T07:26:37.261Z,18.3
2018-03-08T07:31:37.188Z,18.3
2018-03-08T07:36:37.094Z,19.7
2018-03-08T07:41:36.999Z,19.7
2018-03-08T07:46:36.879Z,19.7
2018-03-08T07:51:36.771Z,19.7
2018-03-08T07:56:36.618Z,18
2018-03-08T08:01:36.464Z,18
2018-03-08T08:06:37.040Z,17.3
2018-03-08T08:11:36.850Z,17.3
2018-03-08T08:16:36.727Z,21
2018-03-08T08:21:36.613Z,21
2018-03-08T08:26:36.484Z,14
2018-03-08T08:31:37.674Z,14
2018-03-08T08:36:36.583Z,25.8
2018-03-08T08:41:36.526Z,25.8
2018-03-08T08:46:36.521Z,31.3
2018-03-08T08:51:36.380Z,31.3
2018-03-08T08:56:37.291Z,23.2
2018-03-08T09:01:37.288Z,23.2
2018-03-08T09:06:36.452Z,35.3
2018-03-08T09:11:36.385Z,35.3
2018-03-08T09:16:37.320Z,40.8
2018-03-08T09:21:37.284Z,40.8
2018-03-08T09:26:37.175Z,47
2018-03-08T09:31:37.160Z,47
2018-03-08T09:36:37.116Z,47.2
2018-03-08T09:41:37.115Z,47.2
2018-03-08T09:46:37.007Z,61.3
2018-03-08T09:51:37.003Z,61.3
2018-03-08T09:56:36.986Z,81.7
2018-03-08T10:01:37.100Z,81.7
2018-03-08T10:06:37.342Z,136
2018-03-08T10:11:37.236Z,136
2018-03-08T10:16:37.189Z,119.8
2018-03-08T10:21:44.614Z,119.8
2018-03-08T10:26:36.877Z,117.3
2018-03-08T10:31:36.769Z,117.3
2018-03-08T10:36:36.819Z,68.8
2018-03-08T10:46:36.620Z,79.7
2018-03-08T10:51:36.470Z,79.7
2018-03-08T10:56:38.068Z,103.8
2018-03-08T11:01:37.151Z,103.8
2018-03-08T11:06:37.322Z,181.5
2018-03-08T11:11:37.242Z,181.5
2018-03-08T11:16:37.142Z,216
2018-03-08T11:21:37.121Z,216
2018-03-08T11:26:37.088Z,221
2018-03-08T11:31:37.204Z,221
2018-03-08T11:36:37.180Z,221.2
2018-03-08T11:41:37.160Z,221.2
2018-03-08T11:46:37.067Z,200.7
2018-03-08T11:51:37.033Z,200.7
2018-03-08T11:56:37.039Z,284
2018-03-08T12:01:36.968Z,284
2018-03-08T12:06:37.372Z,192
2018-03-08T12:11:37.415Z,192
2018-03-08T12:16:37.395Z,232.2
2018-03-08T12:21:37.399Z,232.2
2018-03-08T12:26:37.360Z,543
2018-03-08T12:31:37.319Z,543
2018-03-08T12:36:37.284Z,168
2018-03-08T12:41:37.218Z,168
2018-03-08T12:46:37.351Z,564
2018-03-08T12:51:37.418Z,564
2018-03-08T12:56:37.360Z,457.5
2018-03-08T13:01:37.450Z,457.5
2018-03-08T13:06:37.580Z,423.8
2018-03-08T13:11:37.658Z,423.8
2018-03-08T13:16:37.652Z,429
2018-03-08T13:21:36.832Z,429
2018-03-08T13:26:36.738Z,302
2018-03-08T13:31:36.752Z,302
2018-03-08T13:36:36.716Z,395.8
2018-03-08T13:41:37.655Z,395.8
2018-03-08T13:46:37.660Z,412.5
2018-03-08T13:51:37.550Z,412.5
2018-03-08T13:56:37.449Z,384
2018-03-08T14:01:37.447Z,384
2018-03-08T14:06:37.503Z,377.3
2018-03-08T14:11:36.913Z,377.3
2018-03-08T14:16:36.847Z,324.2
2018-03-08T14:21:37.067Z,324.2
2018-03-08T14:26:37.006Z,338
2018-03-08T14:31:36.957Z,338
2018-03-08T14:36:36.896Z,166.2
2018-03-08T14:41:36.853Z,166.2
2018-03-08T14:46:36.782Z,188
2018-03-08T14:51:37.746Z,188
2018-03-08T14:56:37.734Z,74.3
2018-03-08T15:01:37.119Z,74.3
2018-03-08T15:06:37.092Z,75
2018-03-08T15:11:37.234Z,75
2018-03-08T15:16:37.397Z,33.2
2018-03-08T15:21:37.137Z,33.2
2018-03-08T15:26:37.015Z,45.2
2018-03-08T15:31:37.137Z,45.2
2018-03-08T15:36:37.042Z,58
2018-03-08T15:41:37.033Z,58
2018-03-08T15:46:36.963Z,37
2018-03-08T15:51:36.963Z,37
2018-03-08T15:56:37.809Z,18
2018-03-08T16:01:37.851Z,18
2018-03-08T16:06:37.747Z,26.3
2018-03-08T16:11:37.687Z,26.3
2018-03-08T16:16:37.673Z,20.3
2018-03-08T16:21:37.492Z,20.3
2018-03-08T16:26:37.427Z,10.3
2018-03-08T16:31:37.426Z,10.3
2018-03-08T16:36:37.357Z,10.3
2018-03-08T16:41:37.211Z,10.3
2018-03-08T16:46:37.382Z,8.3
2018-03-08T16:51:37.298Z,8.3
2018-03-08T16:56:37.240Z,0
2018-03-08T17:01:37.476Z,0
2018-03-08T17:06:37.348Z,0
2018-03-08T17:11:37.938Z,0
2018-03-08T17:16:37.848Z,0
2018-03-08T17:21:37.830Z,0
2018-03-08T17:26:37.718Z,0
2018-03-08T17:31:37.676Z,0
2018-03-08T17:36:37.601Z,0
2018-03-08T17:41:37.480Z,0
2018-03-08T17:46:37.384Z,0
2018-03-08T17:51:37.339Z,0
2018-03-08T17:56:37.251Z,0
2018-03-08T18:01:37.289Z,0
2018-03-08T18:06:37.203Z,0
2018-03-08T18:11:37.987Z,0
2018-03-08T18:16:37.047Z,0
2018-03-08T18:21:37.064Z,0
2018-03-08T18:26:37.992Z,0
2018-03-08T18:31:38.088Z,0
2018-03-08T18:36:37.068Z,0
2018-03-08T18:41:37.041Z,0
2018-03-08T18:46:37.067Z,0
2018-03-08T18:51:37.992Z,0
2018-03-08T18:56:37.882Z,0
2018-03-08T19:01:37.895Z,0
2018-03-08T19:06:37.903Z,0
2018-03-08T19:11:38.031Z,0
2018-03-08T19:16:38.010Z,0
2018-03-08T19:21:38.007Z,0
2018-03-08T19:26:37.982Z,0
2018-03-08T19:31:37.912Z,0
2018-03-08T19:36:37.902Z,0
2018-03-08T19:41:37.917Z,0
2018-03-08T19:46:37.896Z,0
2018-03-08T19:51:37.915Z,0
2018-03-08T19:56:37.900Z,0
2018-03-08T20:01:37.237Z,0
2018-03-08T20:06:37.212Z,0
2018-03-08T20:11:37.480Z,0
2018-03-08T20:16:37.477Z,0
2018-03-08T20:21:37.714Z,0
2018-03-08T20:26:37.771Z,0
2018-03-08T20:31:37.756Z,0
2018-03-08T20:36:37.714Z,0
2018-03-08T20:41:37.689Z,0
2018-03-08T20:46:37.746Z,0
2018-03-08T20:51:37.627Z,0
2018-03-08T20:56:37.650Z,0
2018-03-08T21:01:37.598Z,0
2018-03-08T21:06:37.680Z,0
2018-03-08T21:11:38.070Z,0
2018-03-08T21:16:38.161Z,0
2018-03-08T21:21:38.189Z,0
2018-03-08T21:26:38.595Z,0
2018-03-08T21:31:37.819Z,0
2018-03-08T21:36:37.735Z,0
2018-03-08T21:41:37.698Z,0
2018-03-08T21:46:37.575Z,0
2018-03-08T21:51:37.397Z,0
2018-03-08T21:56:37.376Z,0
2018-03-08T22:01:37.294Z,0
2018-03-08T22:06:38.178Z,0
2018-03-08T22:11:37.974Z,0
2018-03-08T22:16:37.999Z,0
2018-03-08T22:21:37.972Z,0
2018-03-08T22:26:37.836Z,0
2018-03-08T22:31:37.758Z,0
2018-03-08T22:36:37.731Z,0
2018-03-08T22:41:37.646Z,0
2018-03-08T22:46:37.518Z,0
2018-03-08T22:51:37.416Z,0
2018-03-08T22:56:37.296Z,0
2018-03-08T23:01:38.463Z,0
2018-03-08T23:06:37.516Z,0
2018-03-08T23:11:37.264Z,0
2018-03-08T23:16:38.155Z,0
2018-03-08T23:21:37.992Z,0
2018-03-08T23:26:37.874Z,0
2018-03-08T23:31:37.778Z,0
2018-03-08T23:36:37.668Z,0
2018-03-08T23:41:37.658Z,0
2018-03-08T23:46:37.551Z,0
2018-03-08T23:51:37.380Z,0
2018-03-08T23:56:38.228Z,0
